createdAt,value
2023-03-31T00:00:14.311Z,978.26
2023-03-31T00:01:14.294Z,978.21
2023-03-31T00:02:14.279Z,978.14
2023-03-31T00:03:14.388Z,978.05
2023-03-31T00:04:14.523Z,978.11
2023-03-31T00:05:14.252Z,978.09
2023-03-31T00:06:14.247Z,978.08
2023-03-31T00:07:14.238Z,978.03
2023-03-31T00:08:14.243Z,978.05
2023-03-31T00:09:14.241Z,977.98
2023-03-31T00:10:17.800Z,977.97
2023-03-31T00:11:14.190Z,978.02
2023-03-31T00:12:14.162Z,978.00
2023-03-31T00:13:14.215Z,977.93
2023-03-31T00:14:14.175Z,977.95
2023-03-31T00:15:14.182Z,977.92
2023-03-31T00:16:14.161Z,977.95
2023-03-31T00:17:14.109Z,977.92
2023-03-31T00:18:14.108Z,977.91
2023-03-31T00:19:14.101Z,977.87
2023-03-31T00:20:14.122Z,977.89
2023-03-31T00:21:14.079Z,977.76
2023-03-31T00:22:14.071Z,977.78
2023-03-31T00:23:14.096Z,977.79
2023-03-31T00:24:14.037Z,977.71
2023-03-31T00:25:14.038Z,977.74
2023-03-31T00:26:14.019Z,977.80
2023-03-31T00:27:14.011Z,977.71
2023-03-31T00:28:14.003Z,977.73
2023-03-31T00:29:14.005Z,977.73
2023-03-31T00:30:14.016Z,977.70
2023-03-31T00:31:13.955Z,977.64
2023-03-31T00:32:13.982Z,977.69
2023-03-31T00:33:14.052Z,977.65
2023-03-31T00:34:13.930Z,977.64
2023-03-31T00:35:13.911Z,977.61
2023-03-31T00:36:14.172Z,977.54
2023-03-31T00:37:14.009Z,977.53
2023-03-31T00:38:13.959Z,977.52
2023-03-31T00:39:13.867Z,977.46
2023-03-31T00:40:13.895Z,977.42
2023-03-31T00:41:13.854Z,977.43
2023-03-31T00:42:13.841Z,977.45
2023-03-31T00:43:13.817Z,977.40
2023-03-31T00:44:13.846Z,977.42
2023-03-31T00:45:13.810Z,977.41
2023-03-31T00:46:13.995Z,977.44
2023-03-31T00:47:13.802Z,977.36
2023-03-31T00:48:13.827Z,977.30
2023-03-31T00:49:13.749Z,977.29
2023-03-31T00:50:13.754Z,977.29
2023-03-31T00:51:13.762Z,977.36
2023-03-31T00:52:13.755Z,977.26
2023-03-31T00:53:13.716Z,977.30
2023-03-31T00:54:13.713Z,977.28
2023-03-31T00:55:13.715Z,977.29
2023-03-31T00:56:13.678Z,977.26
2023-03-31T00:57:13.767Z,977.27
2023-03-31T00:58:13.677Z,977.28
2023-03-31T00:59:13.652Z,977.28
2023-03-31T01:00:13.641Z,977.34
2023-03-31T01:01:13.657Z,977.43
2023-03-31T01:02:13.616Z,977.38
2023-03-31T01:03:13.666Z,977.40
2023-03-31T01:04:13.601Z,977.32
2023-03-31T01:05:13.618Z,977.27
2023-03-31T01:06:13.594Z,977.17
2023-03-31T01:07:13.561Z,977.24
2023-03-31T01:08:13.570Z,977.17
2023-03-31T01:09:13.538Z,977.21
2023-03-31T01:10:13.782Z,977.05
2023-03-31T01:11:13.544Z,977.11
2023-03-31T01:12:13.520Z,977.12
2023-03-31T01:13:13.491Z,977.15
2023-03-31T01:14:13.508Z,977.21
2023-03-31T01:15:13.502Z,977.10
2023-03-31T01:16:13.464Z,977.02
2023-03-31T01:17:13.579Z,977.06
2023-03-31T01:18:13.555Z,977.03
2023-03-31T01:19:13.445Z,977.00
2023-03-31T01:20:13.422Z,976.96
2023-03-31T01:21:13.410Z,976.95
2023-03-31T01:22:13.416Z,976.87
2023-03-31T01:23:13.407Z,976.86
2023-03-31T01:24:13.404Z,976.81
2023-03-31T01:25:13.367Z,976.75
2023-03-31T01:26:13.383Z,976.76
2023-03-31T01:27:13.547Z,976.72
2023-03-31T01:28:13.357Z,976.69
2023-03-31T01:29:13.325Z,976.61
2023-03-31T01:30:13.320Z,976.63
2023-03-31T01:31:13.328Z,976.57
2023-03-31T01:32:13.298Z,976.59
2023-03-31T01:33:13.333Z,976.61
2023-03-31T01:34:13.326Z,976.62
2023-03-31T01:35:13.261Z,976.65
2023-03-31T01:36:13.299Z,976.61
2023-03-31T01:37:13.246Z,976.65
2023-03-31T01:38:13.233Z,976.69
2023-03-31T01:39:13.213Z,976.70
2023-03-31T01:40:13.220Z,976.69
2023-03-31T01:41:13.189Z,976.71
2023-03-31T01:42:34.191Z,976.70
2023-03-31T01:43:13.155Z,976.69
2023-03-31T01:44:13.150Z,976.63
2023-03-31T01:45:13.146Z,976.68
2023-03-31T01:46:13.158Z,976.72
2023-03-31T01:47:13.147Z,976.71
2023-03-31T01:48:13.124Z,976.70
2023-03-31T01:49:13.091Z,976.68
2023-03-31T01:50:13.086Z,976.72
2023-03-31T01:51:13.091Z,976.58
2023-03-31T01:52:13.127Z,976.69
2023-03-31T01:53:13.057Z,976.69
2023-03-31T01:54:13.050Z,976.68
2023-03-31T01:55:13.038Z,976.75
2023-03-31T01:56:13.038Z,976.81
2023-03-31T01:57:13.047Z,976.73
2023-03-31T01:58:12.995Z,976.88
2023-03-31T01:59:13.260Z,976.73
2023-03-31T02:00:13.025Z,976.75
2023-03-31T02:01:12.989Z,976.73
2023-03-31T02:02:13.042Z,976.78
2023-03-31T02:03:13.084Z,976.85
2023-03-31T02:04:12.942Z,976.88
2023-03-31T02:05:12.926Z,976.85
2023-03-31T02:06:12.912Z,976.88
2023-03-31T02:07:12.907Z,976.91
2023-03-31T02:08:12.877Z,976.84
2023-03-31T02:09:12.898Z,976.87
2023-03-31T02:10:12.868Z,976.92
2023-03-31T02:11:12.868Z,976.76
2023-03-31T02:12:12.857Z,976.84
2023-03-31T02:13:12.843Z,976.81
2023-03-31T02:14:12.830Z,976.84
2023-03-31T02:15:12.805Z,976.76
2023-03-31T02:16:12.829Z,976.74
2023-03-31T02:17:12.797Z,976.76
2023-03-31T02:18:12.784Z,976.77
2023-03-31T02:19:12.804Z,976.60
2023-03-31T02:20:12.752Z,976.66
2023-03-31T02:21:12.761Z,976.56
2023-03-31T02:22:12.725Z,976.59
2023-03-31T02:23:12.730Z,976.50
2023-03-31T02:24:12.706Z,976.55
2023-03-31T02:25:12.719Z,976.57
2023-03-31T02:26:12.717Z,976.47
2023-03-31T02:27:12.677Z,976.41
2023-03-31T02:28:12.682Z,976.44
2023-03-31T02:29:12.665Z,976.40
2023-03-31T02:30:12.657Z,976.36
2023-03-31T02:31:12.656Z,976.39
2023-03-31T02:32:12.623Z,976.43
2023-03-31T02:33:12.626Z,976.33
2023-03-31T02:34:12.626Z,976.33
2023-03-31T02:35:12.592Z,976.35
2023-03-31T02:36:12.630Z,976.32
2023-03-31T02:37:12.563Z,976.30
2023-03-31T02:38:12.555Z,976.23
2023-03-31T02:39:12.557Z,976.23
2023-03-31T02:40:12.697Z,976.17
2023-03-31T02:41:12.556Z,976.14
2023-03-31T02:42:12.523Z,976.12
2023-03-31T02:43:12.520Z,976.06
2023-03-31T02:44:12.495Z,976.09
2023-03-31T02:45:12.481Z,975.96
2023-03-31T02:46:12.500Z,975.88
2023-03-31T02:47:12.463Z,975.88
2023-03-31T02:48:12.471Z,975.83
2023-03-31T02:49:12.440Z,975.76
2023-03-31T02:50:12.445Z,975.66
2023-03-31T02:51:12.415Z,975.65
2023-03-31T02:52:12.453Z,975.57
2023-03-31T02:53:12.400Z,975.55
2023-03-31T02:54:12.413Z,975.48
2023-03-31T02:55:12.368Z,975.46
2023-03-31T02:56:12.368Z,975.48
2023-03-31T02:57:12.417Z,975.45
2023-03-31T02:58:12.416Z,975.51
2023-03-31T02:59:12.366Z,975.44
2023-03-31T03:00:12.343Z,975.44
2023-03-31T03:01:12.365Z,975.34
2023-03-31T03:02:12.411Z,975.34
2023-03-31T03:03:12.351Z,975.29
2023-03-31T03:04:12.291Z,975.27
2023-03-31T03:05:12.267Z,975.26
2023-03-31T03:06:12.634Z,975.26
2023-03-31T03:07:12.261Z,975.24
2023-03-31T03:08:12.525Z,975.15
2023-03-31T03:09:12.259Z,975.11
2023-03-31T03:10:12.211Z,975.08
2023-03-31T03:11:12.216Z,975.07
2023-03-31T03:12:12.202Z,974.99
2023-03-31T03:13:12.174Z,975.03
2023-03-31T03:14:12.181Z,974.92
2023-03-31T03:15:12.150Z,974.89
2023-03-31T03:16:12.232Z,974.88
2023-03-31T03:17:12.160Z,974.86
2023-03-31T03:18:12.218Z,974.83
2023-03-31T03:19:12.130Z,974.79
2023-03-31T03:20:12.135Z,974.76
2023-03-31T03:21:12.101Z,974.66
2023-03-31T03:22:12.088Z,974.66
2023-03-31T03:23:12.076Z,974.60
2023-03-31T03:24:12.057Z,974.61
2023-03-31T03:25:12.064Z,974.57
2023-03-31T03:26:12.065Z,974.53
2023-03-31T03:27:12.023Z,974.49
2023-03-31T03:28:12.737Z,974.43
2023-03-31T03:29:12.321Z,974.44
2023-03-31T03:30:12.016Z,974.40
2023-03-31T03:31:12.042Z,974.40
2023-03-31T03:32:12.194Z,974.36
2023-03-31T03:33:12.694Z,974.35
2023-03-31T03:34:11.951Z,974.30
2023-03-31T03:35:11.946Z,974.32
2023-03-31T03:36:12.015Z,974.30
2023-03-31T03:37:11.929Z,974.31
2023-03-31T03:38:11.918Z,974.26
2023-03-31T03:39:12.017Z,974.24
2023-03-31T03:40:11.895Z,974.24
2023-03-31T03:41:11.888Z,974.24
2023-03-31T03:42:11.879Z,974.21
2023-03-31T03:43:11.861Z,974.24
2023-03-31T03:44:11.860Z,974.22
2023-03-31T03:45:11.867Z,974.18
2023-03-31T03:46:11.861Z,974.18
2023-03-31T03:47:11.951Z,974.18
2023-03-31T03:48:11.818Z,974.13
2023-03-31T03:49:11.812Z,974.18
2023-03-31T03:50:13.440Z,974.09
2023-03-31T03:51:11.763Z,974.12
2023-03-31T03:52:11.818Z,974.07
2023-03-31T03:53:11.739Z,974.02
2023-03-31T03:54:11.756Z,974.02
2023-03-31T03:55:11.756Z,974.05
2023-03-31T03:56:11.728Z,973.95
2023-03-31T03:57:11.763Z,973.90
2023-03-31T03:58:11.696Z,973.93
2023-03-31T03:59:11.705Z,973.84
2023-03-31T04:00:11.694Z,973.82
2023-03-31T04:01:11.828Z,973.79
2023-03-31T04:02:11.800Z,973.75
2023-03-31T04:03:11.933Z,973.60
2023-03-31T04:04:11.635Z,973.55
2023-03-31T04:05:11.686Z,973.53
2023-03-31T04:06:11.601Z,973.52
2023-03-31T04:07:11.636Z,973.54
2023-03-31T04:08:11.592Z,973.55
2023-03-31T04:09:11.561Z,973.56
2023-03-31T04:10:11.579Z,973.40
2023-03-31T04:11:11.549Z,973.42
2023-03-31T04:12:11.548Z,973.40
2023-03-31T04:13:11.535Z,973.42
2023-03-31T04:14:11.510Z,973.32
2023-03-31T04:15:11.536Z,973.32
2023-03-31T04:16:11.510Z,973.29
2023-03-31T04:17:11.498Z,973.29
2023-03-31T04:18:12.795Z,973.25
2023-03-31T04:19:11.500Z,973.36
2023-03-31T04:20:11.456Z,973.25
2023-03-31T04:21:11.465Z,973.23
2023-03-31T04:22:11.471Z,973.27
2023-03-31T04:23:11.420Z,973.21
2023-03-31T04:24:11.405Z,973.22
2023-03-31T04:25:11.427Z,973.12
2023-03-31T04:26:11.408Z,973.06
2023-03-31T04:27:11.366Z,973.19
2023-03-31T04:28:11.367Z,973.10
2023-03-31T04:29:11.400Z,973.12
2023-03-31T04:30:11.360Z,973.03
2023-03-31T04:31:11.360Z,972.99
2023-03-31T04:32:11.378Z,973.01
2023-03-31T04:33:11.328Z,973.07
2023-03-31T04:34:11.317Z,973.01
2023-03-31T04:35:11.295Z,973.08
2023-03-31T04:36:11.315Z,973.10
2023-03-31T04:37:11.275Z,973.12
2023-03-31T04:38:11.276Z,973.11
2023-03-31T04:39:11.236Z,973.15
2023-03-31T04:40:11.227Z,973.12
2023-03-31T04:41:11.233Z,973.08
2023-03-31T04:42:11.440Z,973.17
2023-03-31T04:43:11.220Z,973.09
2023-03-31T04:44:11.231Z,973.13
2023-03-31T04:45:11.406Z,973.07
2023-03-31T04:46:11.243Z,973.05
2023-03-31T04:47:11.161Z,972.97
2023-03-31T04:48:11.156Z,972.93
2023-03-31T04:49:11.143Z,972.85
2023-03-31T04:50:14.503Z,972.74
2023-03-31T04:51:12.333Z,972.77
2023-03-31T04:52:11.116Z,972.72
2023-03-31T04:53:11.081Z,972.60
2023-03-31T04:54:11.123Z,972.61
2023-03-31T04:55:11.102Z,972.66
2023-03-31T04:56:11.085Z,972.66
2023-03-31T04:57:11.157Z,972.71
2023-03-31T04:58:11.034Z,972.68
2023-03-31T04:59:11.260Z,972.71
2023-03-31T05:00:11.060Z,972.65
2023-03-31T05:01:11.037Z,972.61
2023-03-31T05:02:11.269Z,972.61
2023-03-31T05:03:11.048Z,972.68
2023-03-31T05:04:10.988Z,972.72
2023-03-31T05:05:10.963Z,972.71
2023-03-31T05:06:10.960Z,972.70
2023-03-31T05:07:10.953Z,972.70
2023-03-31T05:08:10.950Z,972.67
2023-03-31T05:09:11.175Z,972.70
2023-03-31T05:10:10.910Z,972.70
2023-03-31T05:11:10.917Z,972.65
2023-03-31T05:12:10.913Z,972.70
2023-03-31T05:13:10.892Z,972.70
2023-03-31T05:14:10.882Z,972.78
2023-03-31T05:15:10.908Z,972.80
2023-03-31T05:16:10.998Z,972.79
2023-03-31T05:17:10.847Z,972.86
2023-03-31T05:18:10.857Z,972.91
2023-03-31T05:19:10.822Z,973.00
2023-03-31T05:20:10.829Z,973.01
2023-03-31T05:21:10.812Z,973.08
2023-03-31T05:22:10.804Z,973.07
2023-03-31T05:23:10.798Z,973.11
2023-03-31T05:24:10.785Z,973.13
2023-03-31T05:25:10.762Z,973.26
2023-03-31T05:26:10.759Z,973.32
2023-03-31T05:27:10.748Z,973.32
2023-03-31T05:28:10.737Z,973.43
2023-03-31T05:29:10.728Z,973.44
2023-03-31T05:30:10.698Z,973.40
2023-03-31T05:31:10.715Z,973.41
2023-03-31T05:32:10.727Z,973.39
2023-03-31T05:33:10.686Z,973.34
2023-03-31T05:34:10.682Z,973.34
2023-03-31T05:35:10.657Z,973.36
2023-03-31T05:36:11.040Z,973.26
2023-03-31T05:37:10.629Z,973.29
2023-03-31T05:38:10.653Z,973.26
2023-03-31T05:39:10.615Z,973.23
2023-03-31T05:40:10.609Z,973.22
2023-03-31T05:41:10.581Z,973.21
2023-03-31T05:42:10.571Z,973.15
2023-03-31T05:43:10.568Z,973.09
2023-03-31T05:44:10.585Z,973.03
2023-03-31T05:45:10.539Z,973.09
2023-03-31T05:46:10.930Z,973.05
2023-03-31T05:47:10.553Z,973.07
2023-03-31T05:48:10.555Z,973.05
2023-03-31T05:49:10.520Z,973.01
2023-03-31T05:50:12.489Z,973.10
2023-03-31T05:51:10.493Z,973.05
2023-03-31T05:52:10.483Z,973.05
2023-03-31T05:53:10.459Z,972.93
2023-03-31T05:54:10.470Z,972.93
2023-03-31T05:55:10.426Z,972.96
2023-03-31T05:56:10.559Z,972.92
2023-03-31T05:57:10.453Z,972.82
2023-03-31T05:58:10.462Z,972.73
2023-03-31T05:59:10.451Z,972.78
2023-03-31T06:00:10.474Z,972.69
2023-03-31T06:01:10.733Z,972.65
2023-03-31T06:02:10.474Z,972.63
2023-03-31T06:03:10.437Z,972.55
2023-03-31T06:04:11.260Z,972.52
2023-03-31T06:05:11.563Z,972.51
2023-03-31T06:06:10.325Z,972.55
2023-03-31T06:07:10.300Z,972.53
2023-03-31T06:08:10.340Z,972.45
2023-03-31T06:09:10.303Z,972.47
2023-03-31T06:10:10.288Z,972.45
2023-03-31T06:11:10.258Z,972.39
2023-03-31T06:12:10.252Z,972.40
2023-03-31T06:13:10.234Z,972.44
2023-03-31T06:14:10.258Z,972.37
2023-03-31T06:15:10.258Z,972.37
2023-03-31T06:16:10.263Z,972.36
2023-03-31T06:17:10.186Z,972.31
2023-03-31T06:18:10.254Z,972.30
2023-03-31T06:19:10.182Z,972.26
2023-03-31T06:20:20.447Z,972.25
2023-03-31T06:21:11.159Z,972.26
2023-03-31T06:22:10.176Z,972.33
2023-03-31T06:23:10.161Z,972.24
2023-03-31T06:24:10.937Z,972.19
2023-03-31T06:25:10.294Z,972.15
2023-03-31T06:26:11.481Z,972.07
2023-03-31T06:27:18.469Z,972.09
2023-03-31T06:28:10.205Z,972.03
2023-03-31T06:29:10.089Z,972.05
2023-03-31T06:30:10.762Z,972.09
2023-03-31T06:31:10.241Z,972.05
2023-03-31T06:32:10.840Z,972.07
2023-03-31T06:33:10.090Z,972.09
2023-03-31T06:34:11.036Z,972.06
2023-03-31T06:35:10.026Z,972.09
2023-03-31T06:36:10.768Z,972.04
2023-03-31T06:37:10.066Z,972.15
2023-03-31T06:38:10.019Z,972.09
2023-03-31T06:39:09.999Z,972.12
2023-03-31T06:40:09.983Z,972.10
2023-03-31T06:41:09.967Z,972.04
2023-03-31T06:42:09.931Z,972.00
2023-03-31T06:43:09.926Z,972.06
2023-03-31T06:44:09.911Z,972.05
2023-03-31T06:45:09.914Z,972.07
2023-03-31T06:46:10.107Z,972.10
2023-03-31T06:47:09.906Z,972.06
2023-03-31T06:48:09.888Z,972.05
2023-03-31T06:49:09.867Z,972.11
2023-03-31T06:50:09.841Z,972.17
2023-03-31T06:51:09.831Z,972.16
2023-03-31T06:52:09.841Z,972.15
2023-03-31T06:53:09.809Z,972.16
2023-03-31T06:54:09.816Z,972.19
2023-03-31T06:55:09.791Z,972.19
2023-03-31T06:56:09.851Z,972.25
2023-03-31T06:57:09.924Z,972.30
2023-03-31T06:58:09.744Z,972.36
2023-03-31T06:59:09.764Z,972.46
2023-03-31T07:00:09.775Z,972.49
2023-03-31T07:01:09.940Z,972.54
2023-03-31T07:02:09.747Z,972.61
2023-03-31T07:03:09.876Z,972.70
2023-03-31T07:04:09.714Z,972.72
2023-03-31T07:05:09.697Z,972.77
2023-03-31T07:06:09.684Z,972.70
2023-03-31T07:07:10.691Z,972.77
2023-03-31T07:08:09.667Z,972.82
2023-03-31T07:09:10.365Z,972.80
2023-03-31T07:10:09.638Z,972.87
2023-03-31T07:11:11.126Z,972.75
2023-03-31T07:12:09.666Z,972.72
2023-03-31T07:13:10.295Z,972.69
2023-03-31T07:14:09.629Z,972.67
2023-03-31T07:15:09.682Z,972.69
2023-03-31T07:16:09.829Z,972.60
2023-03-31T07:17:10.726Z,972.60
2023-03-31T07:18:09.640Z,972.53
2023-03-31T07:19:10.325Z,971.99
2023-03-31T07:20:09.532Z,971.66
2023-03-31T07:21:10.750Z,971.59
2023-03-31T07:22:09.503Z,971.73
2023-03-31T07:23:10.204Z,971.73
2023-03-31T07:24:09.498Z,971.65
2023-03-31T07:25:10.192Z,971.72
2023-03-31T07:26:09.472Z,971.71
2023-03-31T07:27:10.256Z,971.52
2023-03-31T07:28:09.449Z,971.63
2023-03-31T07:29:09.449Z,971.72
2023-03-31T07:30:09.434Z,971.66
2023-03-31T07:31:10.122Z,971.74
2023-03-31T07:32:09.402Z,971.88
2023-03-31T07:33:10.169Z,971.84
2023-03-31T07:34:09.378Z,971.72
2023-03-31T07:35:09.704Z,971.84
2023-03-31T07:36:13.287Z,971.85
2023-03-31T07:37:10.055Z,971.86
2023-03-31T07:38:09.322Z,971.81
2023-03-31T07:39:09.341Z,971.83
2023-03-31T07:40:09.296Z,971.80
2023-03-31T07:41:10.270Z,971.82
2023-03-31T07:42:09.286Z,971.87
2023-03-31T07:43:09.305Z,971.80
2023-03-31T07:44:09.277Z,971.76
2023-03-31T07:45:10.240Z,971.79
2023-03-31T07:46:09.524Z,971.78
2023-03-31T07:47:09.925Z,971.81
2023-03-31T07:48:09.227Z,971.81
2023-03-31T07:49:09.230Z,971.77
2023-03-31T07:50:09.213Z,971.70
2023-03-31T07:51:09.236Z,971.71
2023-03-31T07:52:09.177Z,971.76
2023-03-31T07:53:10.161Z,971.79
2023-03-31T07:54:10.721Z,971.73
2023-03-31T07:55:09.178Z,971.72
2023-03-31T07:56:09.347Z,971.68
2023-03-31T07:57:09.240Z,971.65
2023-03-31T07:58:09.123Z,971.63
2023-03-31T07:59:09.821Z,971.70
2023-03-31T08:00:09.119Z,971.66
2023-03-31T08:01:09.925Z,971.62
2023-03-31T08:02:09.080Z,971.53
2023-03-31T08:03:09.135Z,971.59
2023-03-31T08:04:11.226Z,971.70
2023-03-31T08:05:09.774Z,971.56
2023-03-31T08:06:09.344Z,971.81
2023-03-31T08:07:09.022Z,971.56
2023-03-31T08:08:08.992Z,971.68
2023-03-31T08:09:08.999Z,971.60
2023-03-31T08:10:09.038Z,971.62
2023-03-31T08:11:09.124Z,971.67
2023-03-31T08:12:08.970Z,971.74
2023-03-31T08:13:08.940Z,971.65
2023-03-31T08:14:08.942Z,971.66
2023-03-31T08:15:08.935Z,971.51
2023-03-31T08:16:09.375Z,971.63
2023-03-31T08:17:08.898Z,971.72
2023-03-31T08:18:08.937Z,971.77
2023-03-31T08:19:08.894Z,971.61
2023-03-31T08:20:08.889Z,971.57
2023-03-31T08:21:09.079Z,971.54
2023-03-31T08:22:09.571Z,971.60
2023-03-31T08:23:08.855Z,971.69
2023-03-31T08:24:09.555Z,971.62
2023-03-31T08:25:08.843Z,971.53
2023-03-31T08:26:09.628Z,971.64
2023-03-31T08:27:12.028Z,971.52
2023-03-31T08:28:09.805Z,971.43
2023-03-31T08:29:08.794Z,971.49
2023-03-31T08:30:08.870Z,971.50
2023-03-31T08:31:08.797Z,971.48
2023-03-31T08:32:09.759Z,971.43
2023-03-31T08:33:08.847Z,971.52
2023-03-31T08:34:09.515Z,971.38
2023-03-31T08:35:08.703Z,971.49
2023-03-31T08:36:09.010Z,971.40
2023-03-31T08:37:08.681Z,971.58
2023-03-31T08:38:09.139Z,971.32
2023-03-31T08:39:08.678Z,971.67
2023-03-31T08:40:08.652Z,971.42
2023-03-31T08:41:08.646Z,971.50
2023-03-31T08:42:11.419Z,971.44
2023-03-31T08:43:08.630Z,971.75
2023-03-31T08:44:08.614Z,971.58
2023-03-31T08:45:08.596Z,971.55
2023-03-31T08:46:08.963Z,971.46
2023-03-31T08:47:08.588Z,971.59
2023-03-31T08:48:08.646Z,971.31
2023-03-31T08:49:08.565Z,971.24
2023-03-31T08:50:08.562Z,971.48
2023-03-31T08:51:08.770Z,971.21
2023-03-31T08:52:08.515Z,971.28
2023-03-31T08:53:08.505Z,971.33
2023-03-31T08:54:08.511Z,971.31
2023-03-31T08:55:08.501Z,971.37
2023-03-31T08:56:08.598Z,971.24
2023-03-31T08:57:08.495Z,971.34
2023-03-31T08:58:08.448Z,971.34
2023-03-31T08:59:08.487Z,971.30
2023-03-31T09:00:08.460Z,971.30
2023-03-31T09:01:08.723Z,971.26
2023-03-31T09:02:08.542Z,971.23
2023-03-31T09:03:08.570Z,971.39
2023-03-31T09:04:11.823Z,971.33
2023-03-31T09:05:08.376Z,971.39
2023-03-31T09:06:08.391Z,971.31
2023-03-31T09:07:08.387Z,971.14
2023-03-31T09:08:08.358Z,971.33
2023-03-31T09:09:08.353Z,971.16
2023-03-31T09:10:08.320Z,971.17
2023-03-31T09:11:08.330Z,971.24
2023-03-31T09:12:08.342Z,971.22
2023-03-31T09:13:08.305Z,971.26
2023-03-31T09:14:08.280Z,971.07
2023-03-31T09:15:08.282Z,971.05
2023-03-31T09:16:08.431Z,970.99
2023-03-31T09:17:08.380Z,971.09
2023-03-31T09:18:08.321Z,970.98
2023-03-31T09:19:08.229Z,970.96
2023-03-31T09:20:08.223Z,971.16
2023-03-31T09:21:08.590Z,971.19
2023-03-31T09:22:08.207Z,970.99
2023-03-31T09:23:08.180Z,971.11
2023-03-31T09:24:08.215Z,970.86
2023-03-31T09:25:08.180Z,970.98
2023-03-31T09:26:08.299Z,970.91
2023-03-31T09:27:08.158Z,971.11
2023-03-31T09:28:08.144Z,970.99
2023-03-31T09:29:08.140Z,970.94
2023-03-31T09:30:08.130Z,971.69
2023-03-31T09:31:08.135Z,971.28
2023-03-31T09:32:08.098Z,971.14
2023-03-31T09:33:08.130Z,970.97
2023-03-31T09:34:08.062Z,971.08
2023-03-31T09:35:08.614Z,971.18
2023-03-31T09:36:08.286Z,971.59
2023-03-31T09:37:08.081Z,971.07
2023-03-31T09:38:08.067Z,971.15
2023-03-31T09:39:09.160Z,971.65
2023-03-31T09:40:08.201Z,971.03
2023-03-31T09:41:08.557Z,971.27
2023-03-31T09:42:07.981Z,971.24
2023-03-31T09:43:08.992Z,971.13
2023-03-31T09:44:07.982Z,971.10
2023-03-31T09:45:08.027Z,971.20
2023-03-31T09:46:10.064Z,971.32
2023-03-31T09:47:11.277Z,971.24
2023-03-31T09:48:07.980Z,971.08
2023-03-31T09:49:08.491Z,970.98
2023-03-31T09:50:07.902Z,970.99
2023-03-31T09:51:08.148Z,971.48
2023-03-31T09:52:07.866Z,971.23
2023-03-31T09:53:07.896Z,971.42
2023-03-31T09:54:07.847Z,971.15
2023-03-31T09:55:07.835Z,971.07
2023-03-31T09:56:08.311Z,970.96
2023-03-31T09:57:07.857Z,970.91
2023-03-31T09:58:07.889Z,970.77
2023-03-31T09:59:07.806Z,970.84
2023-03-31T10:00:07.777Z,970.66
2023-03-31T10:01:07.965Z,970.76
2023-03-31T10:02:07.805Z,970.68
2023-03-31T10:03:08.112Z,970.79
2023-03-31T10:04:07.790Z,970.90
2023-03-31T10:05:07.748Z,970.74
2023-03-31T10:06:07.738Z,970.62
2023-03-31T10:07:07.728Z,971.24
2023-03-31T10:08:07.717Z,970.93
2023-03-31T10:09:07.713Z,970.72
2023-03-31T10:10:07.682Z,970.71
2023-03-31T10:11:07.991Z,970.57
2023-03-31T10:12:07.672Z,970.64
2023-03-31T10:13:07.653Z,970.66
2023-03-31T10:14:07.652Z,970.75
2023-03-31T10:15:07.621Z,970.58
2023-03-31T10:16:07.648Z,970.54
2023-03-31T10:17:07.633Z,970.60
2023-03-31T10:18:07.642Z,970.54
2023-03-31T10:19:07.599Z,970.92
2023-03-31T10:20:07.603Z,970.53
2023-03-31T10:21:07.699Z,970.55
2023-03-31T10:22:07.538Z,970.38
2023-03-31T10:23:07.554Z,970.43
2023-03-31T10:24:07.541Z,970.42
2023-03-31T10:25:07.541Z,970.29
2023-03-31T10:26:07.494Z,970.38
2023-03-31T10:27:07.516Z,970.71
2023-03-31T10:28:07.493Z,970.52
2023-03-31T10:29:07.464Z,970.41
2023-03-31T10:30:07.485Z,970.37
2023-03-31T10:31:07.695Z,970.42
2023-03-31T10:32:07.447Z,970.45
2023-03-31T10:33:19.149Z,970.26
2023-03-31T10:34:08.406Z,970.34
2023-03-31T10:35:07.425Z,970.21
2023-03-31T10:36:07.469Z,970.22
2023-03-31T10:37:07.395Z,970.15
2023-03-31T10:38:07.397Z,970.24
2023-03-31T10:39:07.352Z,970.44
2023-03-31T10:40:07.352Z,970.85
2023-03-31T10:41:07.625Z,970.51
2023-03-31T10:42:07.325Z,969.91
2023-03-31T10:43:07.343Z,969.77
2023-03-31T10:44:07.328Z,969.79
2023-03-31T10:45:07.304Z,970.20
2023-03-31T10:46:07.285Z,970.08
2023-03-31T10:47:07.371Z,970.12
2023-03-31T10:48:07.323Z,970.33
2023-03-31T10:49:07.274Z,969.98
2023-03-31T10:50:07.355Z,970.07
2023-03-31T10:51:07.554Z,969.97
2023-03-31T10:52:07.268Z,970.02
2023-03-31T10:53:07.234Z,969.72
2023-03-31T10:54:08.348Z,970.05
2023-03-31T10:55:07.196Z,970.18
2023-03-31T10:56:08.231Z,969.79
2023-03-31T10:57:07.215Z,970.10
2023-03-31T10:58:07.354Z,970.00
2023-03-31T10:59:07.190Z,969.90
2023-03-31T11:00:07.320Z,969.76
2023-03-31T11:01:07.305Z,970.01
2023-03-31T11:02:07.631Z,969.84
2023-03-31T11:03:07.156Z,969.88
2023-03-31T11:04:07.180Z,969.93
2023-03-31T11:05:07.134Z,969.83
2023-03-31T11:06:07.791Z,969.80
2023-03-31T11:07:07.072Z,969.79
2023-03-31T11:08:07.251Z,969.65
2023-03-31T11:09:07.168Z,969.73
2023-03-31T11:10:07.057Z,969.76
2023-03-31T11:11:07.342Z,969.91
2023-03-31T11:12:07.014Z,969.75
2023-03-31T11:13:06.981Z,969.86
2023-03-31T11:14:06.988Z,969.63
2023-03-31T11:15:06.984Z,969.71
2023-03-31T11:16:07.122Z,970.14
2023-03-31T11:17:07.014Z,970.00
2023-03-31T11:18:06.991Z,970.10
2023-03-31T11:19:06.912Z,970.21
2023-03-31T11:20:06.943Z,970.30
2023-03-31T11:21:07.077Z,970.31
2023-03-31T11:22:06.882Z,970.92
2023-03-31T11:23:06.884Z,970.73
2023-03-31T11:24:06.886Z,971.61
2023-03-31T11:25:06.864Z,971.22
2023-03-31T11:26:06.880Z,971.53
2023-03-31T11:27:06.846Z,971.47
2023-03-31T11:28:06.824Z,971.78
2023-03-31T11:29:06.834Z,971.67
2023-03-31T11:30:06.808Z,971.82
2023-03-31T11:31:07.076Z,971.47
2023-03-31T11:32:06.842Z,971.97
2023-03-31T11:33:06.859Z,971.94
2023-03-31T11:34:06.770Z,971.32
2023-03-31T11:35:06.739Z,971.22
2023-03-31T11:36:06.780Z,971.23
2023-03-31T11:37:06.736Z,971.26
2023-03-31T11:38:06.740Z,971.43
2023-03-31T11:39:06.777Z,971.51
2023-03-31T11:40:06.703Z,971.41
2023-03-31T11:41:06.985Z,971.37
2023-03-31T11:42:06.718Z,971.48
2023-03-31T11:43:06.686Z,971.32
2023-03-31T11:44:06.668Z,971.61
2023-03-31T11:45:06.638Z,971.65
2023-03-31T11:46:06.931Z,971.47
2023-03-31T11:47:06.656Z,971.52
2023-03-31T11:48:07.879Z,971.51
2023-03-31T11:49:06.680Z,971.45
2023-03-31T11:50:06.589Z,971.52
2023-03-31T11:51:06.587Z,971.50
2023-03-31T11:52:06.602Z,971.36
2023-03-31T11:53:06.561Z,971.31
2023-03-31T11:54:06.574Z,971.37
2023-03-31T11:55:06.565Z,971.21
2023-03-31T11:56:06.700Z,971.28
2023-03-31T11:57:06.601Z,971.27
2023-03-31T11:58:06.553Z,971.30
2023-03-31T11:59:06.478Z,971.32
2023-03-31T12:00:06.492Z,971.35
2023-03-31T12:01:06.529Z,971.33
2023-03-31T12:02:06.471Z,971.25
2023-03-31T12:03:06.652Z,971.10
2023-03-31T12:04:06.537Z,971.05
2023-03-31T12:05:07.662Z,971.13
2023-03-31T12:06:06.802Z,971.20
2023-03-31T12:07:07.162Z,971.15
2023-03-31T12:08:06.438Z,971.11
2023-03-31T12:09:07.582Z,970.96
2023-03-31T12:10:06.520Z,971.04
2023-03-31T12:11:06.557Z,970.90
2023-03-31T12:12:06.360Z,970.86
2023-03-31T12:13:06.364Z,970.86
2023-03-31T12:14:06.404Z,970.82
2023-03-31T12:15:06.324Z,971.00
2023-03-31T12:16:06.647Z,970.98
2023-03-31T12:17:06.323Z,970.90
2023-03-31T12:18:06.463Z,970.88
2023-03-31T12:19:06.272Z,970.83
2023-03-31T12:20:06.325Z,970.63
2023-03-31T12:21:06.243Z,970.72
2023-03-31T12:22:06.255Z,970.78
2023-03-31T12:23:06.227Z,970.67
2023-03-31T12:24:08.286Z,970.84
2023-03-31T12:25:06.250Z,970.73
2023-03-31T12:26:06.397Z,970.60
2023-03-31T12:27:06.198Z,970.73
2023-03-31T12:28:06.210Z,970.80